EISG/SXL METAR and TAF weather

Enter ICAO airport designator
Station Type Date Time Source
EISG METAR 2018/12/12 16:00 UTC NOAA

EISG 121600Z 11015KT CAVOK 07/05 Q1006


Station Type Date Time Source
EISG Decoded METAR 2018/12/12 16:00 UTC NOAA

Station name not available
Dec 12, 2018 - 11:00 AM EST / 2018.12.12 1600 UTC
Wind: from the ESE (110 degrees) at 17 MPH (15 KT):0
Visibility: greater than 7 mile(s):0
Temperature: 44 F (7 C)
Dew Point: 41 F (5 C)
Relative Humidity: 87%
Pressure (altimeter): 29.71 in. Hg (1006 hPa)
ob: EISG 121600Z 11015KT CAVOK 07/05 Q1006
cycle: 16

Station Type Date Time Source
EISG TAF UTC NOAA

Error!


Example: see airport list